createdAt,value
2023-07-26T00:03:44.609Z,88.00
2023-07-26T00:11:50.381Z,88.40
2023-07-26T00:19:58.236Z,88.60
2023-07-26T00:28:03.647Z,88.10
2023-07-26T00:36:12.554Z,88.10
2023-07-26T00:44:18.337Z,88.00
2023-07-26T00:52:26.872Z,88.20
2023-07-26T01:00:34.415Z,88.30
2023-07-26T01:08:53.593Z,88.70
2023-07-26T01:16:59.608Z,89.30
2023-07-26T01:25:08.135Z,90.10
2023-07-26T01:33:14.169Z,90.00
2023-07-26T01:41:24.926Z,90.10
2023-07-26T01:49:30.310Z,90.20
2023-07-26T01:57:38.352Z,90.10
2023-07-26T02:05:47.511Z,89.90
2023-07-26T02:13:55.651Z,89.80
2023-07-26T02:22:01.593Z,90.20
2023-07-26T02:30:10.977Z,90.70
2023-07-26T02:38:16.296Z,90.60
2023-07-26T02:46:24.257Z,90.60
2023-07-26T02:54:29.622Z,90.70
2023-07-26T03:02:37.740Z,90.80
2023-07-26T03:10:43.443Z,90.70
2023-07-26T03:18:51.533Z,90.70
2023-07-26T03:26:56.993Z,90.70
2023-07-26T03:35:04.900Z,90.90
2023-07-26T03:43:10.288Z,90.90
2023-07-26T03:51:18.351Z,90.60
2023-07-26T03:59:23.746Z,90.50
2023-07-26T04:07:31.782Z,90.30
2023-07-26T04:15:39.208Z,90.10
2023-07-26T04:23:49.431Z,90.10
2023-07-26T04:31:54.799Z,89.70
2023-07-26T04:40:02.674Z,89.50
2023-07-26T04:48:08.538Z,88.60
2023-07-26T04:56:17.075Z,87.70
2023-07-26T05:04:22.518Z,87.40
2023-07-26T05:12:30.539Z,86.00
2023-07-26T05:20:36.162Z,85.00
2023-07-26T05:28:44.072Z,84.60
2023-07-26T05:36:49.466Z,84.20
2023-07-26T05:44:57.516Z,81.90
2023-07-26T05:53:02.923Z,80.60
2023-07-26T06:01:10.896Z,79.80
2023-07-26T06:09:16.739Z,77.10
2023-07-26T06:17:24.889Z,74.50
2023-07-26T06:25:30.292Z,74.30
2023-07-26T06:33:38.284Z,71.20
2023-07-26T06:41:43.661Z,69.20
2023-07-26T06:49:55.588Z,68.70
2023-07-26T06:58:01.064Z,68.00
2023-07-26T07:06:08.951Z,66.50
2023-07-26T07:14:15.530Z,67.30
2023-07-26T07:22:23.936Z,65.30
2023-07-26T07:30:29.676Z,64.40
2023-07-26T07:38:37.883Z,67.00
2023-07-26T07:46:56.753Z,66.60
2023-07-26T07:55:10.645Z,65.50
2023-07-26T08:03:16.082Z,65.00
2023-07-26T08:11:24.977Z,64.30
2023-07-26T08:19:30.582Z,65.90
2023-07-26T08:27:38.558Z,64.90
2023-07-26T08:35:44.093Z,64.20
2023-07-26T08:43:57.260Z,63.20
2023-07-26T08:52:05.300Z,63.60
2023-07-26T09:00:15.470Z,64.40
2023-07-26T09:08:21.022Z,65.00
2023-07-26T09:16:30.973Z,67.00
2023-07-26T09:24:38.263Z,68.30
2023-07-26T09:32:46.350Z,69.80
2023-07-26T09:40:51.731Z,77.40
2023-07-26T09:49:04.536Z,81.00
2023-07-26T09:57:13.148Z,83.80
2023-07-26T10:05:24.087Z,83.70
2023-07-26T10:13:31.712Z,83.00
2023-07-26T10:21:40.724Z,82.10
2023-07-26T10:29:46.140Z,83.00
2023-07-26T10:37:54.149Z,83.90
2023-07-26T10:45:59.560Z,84.80
2023-07-26T10:54:09.594Z,84.80
2023-07-26T11:02:16.473Z,85.30
2023-07-26T11:10:26.009Z,87.30
2023-07-26T11:18:31.637Z,87.10
2023-07-26T11:26:47.141Z,86.60
2023-07-26T11:34:57.906Z,84.60
2023-07-26T11:43:08.545Z,84.10
2023-07-26T11:51:14.079Z,83.80
2023-07-26T11:59:22.881Z,84.30
2023-07-26T12:07:29.313Z,85.80
2023-07-26T12:15:53.385Z,85.50
2023-07-26T12:24:03.751Z,84.90
2023-07-26T12:32:15.578Z,80.30
2023-07-26T12:40:22.678Z,80.00
2023-07-26T12:48:31.401Z,80.00
2023-07-26T12:56:37.285Z,80.10
2023-07-26T13:04:45.652Z,81.30
2023-07-26T13:12:51.112Z,82.30
2023-07-26T13:20:58.997Z,82.80
2023-07-26T13:29:04.722Z,83.40
2023-07-26T13:37:12.908Z,84.70
2023-07-26T13:45:18.317Z,86.30
2023-07-26T13:53:26.321Z,86.70
2023-07-26T14:01:32.189Z,86.10
2023-07-26T14:09:40.716Z,85.80
2023-07-26T14:17:48.288Z,85.80
2023-07-26T14:25:56.325Z,87.20
2023-07-26T14:34:15.610Z,87.50
2023-07-26T14:42:23.714Z,87.20
2023-07-26T14:50:29.063Z,85.90
2023-07-26T14:58:37.053Z,87.40
2023-07-26T15:06:42.779Z,87.20
2023-07-26T15:14:50.943Z,86.70
2023-07-26T15:22:56.388Z,85.80
2023-07-26T15:31:04.468Z,85.50
2023-07-26T15:39:10.341Z,85.20
2023-07-26T15:47:18.300Z,86.20
2023-07-26T15:55:24.066Z,86.60
2023-07-26T16:03:34.526Z,88.20
2023-07-26T16:27:59.498Z,88.90
2023-07-26T16:36:08.042Z,89.00
2023-07-26T16:44:14.253Z,89.10
2023-07-26T16:52:22.521Z,88.80
2023-07-26T17:00:27.972Z,89.10
2023-07-26T17:08:37.030Z,89.00
2023-07-26T17:16:42.423Z,89.20
2023-07-26T17:24:50.641Z,89.20
2023-07-26T17:32:56.061Z,89.30
2023-07-26T17:41:05.644Z,89.20
2023-07-26T17:49:11.155Z,89.10
2023-07-26T17:57:21.520Z,89.80
2023-07-26T18:05:27.456Z,90.20
2023-07-26T18:13:36.823Z,90.20
2023-07-26T18:21:42.340Z,90.60
2023-07-26T18:29:50.541Z,90.00
2023-07-26T18:37:55.955Z,89.60
2023-07-26T18:46:03.949Z,89.90
2023-07-26T18:54:09.570Z,89.90
2023-07-26T19:02:17.653Z,89.90
2023-07-26T19:10:23.136Z,90.00
2023-07-26T19:18:31.396Z,90.20
2023-07-26T19:26:36.907Z,90.30
2023-07-26T19:34:44.817Z,90.20
2023-07-26T19:42:50.689Z,89.80
2023-07-26T19:51:00.669Z,89.60
2023-07-26T19:59:06.603Z,88.60
2023-07-26T20:07:14.459Z,88.00
2023-07-26T20:15:20.045Z,88.00
2023-07-26T20:23:28.114Z,86.50
2023-07-26T20:31:33.505Z,86.80
2023-07-26T20:39:41.542Z,86.30
2023-07-26T20:47:46.982Z,85.40
2023-07-26T20:55:55.103Z,85.70
2023-07-26T21:04:00.731Z,84.90
2023-07-26T21:12:09.445Z,84.70
2023-07-26T21:20:16.014Z,84.20
2023-07-26T21:28:24.128Z,83.80
2023-07-26T21:36:29.463Z,83.40
2023-07-26T21:44:37.420Z,83.20
2023-07-26T21:52:42.787Z,83.40
2023-07-26T22:00:52.591Z,83.30
2023-07-26T22:08:58.008Z,83.10
2023-07-26T22:17:06.127Z,82.50
2023-07-26T22:25:12.135Z,81.80
2023-07-26T22:33:20.158Z,81.70
2023-07-26T22:41:25.514Z,81.30
2023-07-26T22:49:33.584Z,81.20
2023-07-26T22:57:38.997Z,80.90
2023-07-26T23:05:47.003Z,81.30
2023-07-26T23:13:52.582Z,81.30
2023-07-26T23:22:02.083Z,81.30
2023-07-26T23:30:10.340Z,81.80
2023-07-26T23:38:19.040Z,81.60
2023-07-26T23:46:24.466Z,82.60
2023-07-26T23:54:32.584Z,82.60
